sensor_id;sensor_type;location;lat;lon;timestamp;pressure;altitude;pressure_sealevel;temperature;humidity
5283;BME280;15376;48.540;9.268;2023-07-31T00:01:43;97595.94;;;12.76;100.00
5283;BME280;15376;48.540;9.268;2023-07-31T00:04:08;97598.41;;;12.77;100.00
5283;BME280;15376;48.540;9.268;2023-07-31T00:06:33;97570.03;;;12.42;100.00
5283;BME280;15376;48.540;9.268;2023-07-31T00:08:59;97579.19;;;12.32;100.00
5283;BME280;15376;48.540;9.268;2023-07-31T00:11:24;97593.31;;;12.33;100.00
5283;BME280;15376;48.540;9.268;2023-07-31T00:13:52;97604.81;;;12.33;100.00
5283;BME280;15376;48.540;9.268;2023-07-31T00:16:18;97594.66;;;12.22;100.00
5283;BME280;15376;48.540;9.268;2023-07-31T00:18:43;97602.38;;;12.17;100.00
5283;BME280;15376;48.540;9.268;2023-07-31T00:21:09;97574.88;;;12.10;100.00
5283;BME280;15376;48.540;9.268;2023-07-31T00:23:34;97576.78;;;12.38;100.00
5283;BME280;15376;48.540;9.268;2023-07-31T00:26:00;97599.75;;;12.66;100.00
5283;BME280;15376;48.540;9.268;2023-07-31T00:28:25;97585.34;;;12.61;100.00
5283;BME280;15376;48.540;9.268;2023-07-31T00:30:51;97603.28;;;12.74;100.00
5283;BME280;15376;48.540;9.268;2023-07-31T00:33:17;97591.34;;;12.42;100.00
5283;BME280;15376;48.540;9.268;2023-07-31T00:35:42;97604.72;;;12.48;100.00
5283;BME280;15376;48.540;9.268;2023-07-31T00:38:07;97585.22;;;12.20;100.00
5283;BME280;15376;48.540;9.268;2023-07-31T00:40:37;97602.66;;;12.22;100.00
5283;BME280;15376;48.540;9.268;2023-07-31T00:43:03;97595.59;;;11.93;100.00
5283;BME280;15376;48.540;9.268;2023-07-31T00:45:29;97619.63;;;12.21;100.00
5283;BME280;15376;48.540;9.268;2023-07-31T00:47:55;97583.81;;;12.24;100.00
5283;BME280;15376;48.540;9.268;2023-07-31T00:50:22;97615.19;;;12.28;100.00
5283;BME280;15376;48.540;9.268;2023-07-31T00:52:49;97581.59;;;12.06;100.00
5283;BME280;15376;48.540;9.268;2023-07-31T00:55:14;97607.44;;;12.12;100.00
5283;BME280;15376;48.540;9.268;2023-07-31T00:57:41;97599.78;;;12.02;100.00
5283;BME280;15376;48.540;9.268;2023-07-31T01:00:07;97601.75;;;12.15;100.00
5283;BME280;15376;48.540;9.268;2023-07-31T01:02:33;97557.44;;;12.08;100.00
5283;BME280;15376;48.540;9.268;2023-07-31T01:04:59;97565.03;;;12.11;100.00
5283;BME280;15376;48.540;9.268;2023-07-31T01:07:34;97596.09;;;12.03;100.00
5283;BME280;15376;48.540;9.268;2023-07-31T01:10:20;97601.59;;;12.02;100.00
5283;BME280;15376;48.540;9.268;2023-07-31T01:12:47;97590.84;;;11.89;100.00
5283;BME280;15376;48.540;9.268;2023-07-31T01:15:13;97580.47;;;11.94;100.00
5283;BME280;15376;48.540;9.268;2023-07-31T01:17:41;97567.28;;;11.86;100.00
5283;BME280;15376;48.540;9.268;2023-07-31T01:22:56;97588.94;;;12.04;100.00
5283;BME280;15376;48.540;9.268;2023-07-31T01:25:44;97587.63;;;12.15;100.00
5283;BME280;15376;48.540;9.268;2023-07-31T01:28:14;97548.91;;;11.91;100.00
5283;BME280;15376;48.540;9.268;2023-07-31T01:30:44;97543.59;;;11.91;100.00
5283;BME280;15376;48.540;9.268;2023-07-31T01:33:11;97547.16;;;12.05;100.00
5283;BME280;15376;48.540;9.268;2023-07-31T01:35:37;97556.88;;;11.91;100.00
5283;BME280;15376;48.540;9.268;2023-07-31T01:38:04;97530.22;;;11.69;100.00
5283;BME280;15376;48.540;9.268;2023-07-31T01:40:30;97537.19;;;11.70;100.00
5283;BME280;15376;48.540;9.268;2023-07-31T01:42:55;97567.78;;;11.96;100.00
5283;BME280;15376;48.540;9.268;2023-07-31T01:45:21;97554.34;;;12.04;100.00
5283;BME280;15376;48.540;9.268;2023-07-31T01:47:46;97558.66;;;12.26;100.00
5283;BME280;15376;48.540;9.268;2023-07-31T01:50:12;97563.97;;;12.26;100.00
5283;BME280;15376;48.540;9.268;2023-07-31T01:52:37;97525.75;;;12.13;100.00
5283;BME280;15376;48.540;9.268;2023-07-31T01:55:03;97540.19;;;12.25;100.00
5283;BME280;15376;48.540;9.268;2023-07-31T01:57:28;97520.88;;;12.16;100.00
5283;BME280;15376;48.540;9.268;2023-07-31T01:59:53;97529.50;;;12.18;100.00
5283;BME280;15376;48.540;9.268;2023-07-31T02:02:19;97523.59;;;12.23;100.00
5283;BME280;15376;48.540;9.268;2023-07-31T02:04:45;97548.53;;;12.43;100.00
5283;BME280;15376;48.540;9.268;2023-07-31T02:07:10;97549.34;;;12.44;100.00
5283;BME280;15376;48.540;9.268;2023-07-31T02:09:36;97533.03;;;12.25;100.00
5283;BME280;15376;48.540;9.268;2023-07-31T02:12:01;97549.13;;;12.17;100.00
5283;BME280;15376;48.540;9.268;2023-07-31T02:14:27;97531.78;;;12.00;100.00
5283;BME280;15376;48.540;9.268;2023-07-31T02:16:52;97535.81;;;12.17;100.00
5283;BME280;15376;48.540;9.268;2023-07-31T02:19:17;97534.94;;;12.31;100.00
5283;BME280;15376;48.540;9.268;2023-07-31T02:21:43;97529.09;;;12.21;100.00
5283;BME280;15376;48.540;9.268;2023-07-31T02:24:08;97504.69;;;11.90;100.00
5283;BME280;15376;48.540;9.268;2023-07-31T02:26:33;97511.13;;;12.02;100.00
5283;BME280;15376;48.540;9.268;2023-07-31T02:28:59;97477.63;;;11.86;100.00
5283;BME280;15376;48.540;9.268;2023-07-31T02:31:24;97484.03;;;11.92;100.00
5283;BME280;15376;48.540;9.268;2023-07-31T02:33:49;97470.28;;;11.88;100.00
5283;BME280;15376;48.540;9.268;2023-07-31T02:36:15;97492.75;;;11.86;100.00
5283;BME280;15376;48.540;9.268;2023-07-31T02:38:40;97505.69;;;11.89;100.00
5283;BME280;15376;48.540;9.268;2023-07-31T02:41:05;97511.59;;;11.69;100.00
5283;BME280;15376;48.540;9.268;2023-07-31T02:43:31;97474.28;;;11.42;100.00
5283;BME280;15376;48.540;9.268;2023-07-31T02:45:56;97499.56;;;11.74;100.00
5283;BME280;15376;48.540;9.268;2023-07-31T02:48:22;97486.72;;;11.56;100.00
5283;BME280;15376;48.540;9.268;2023-07-31T02:50:48;97486.75;;;11.62;100.00
5283;BME280;15376;48.540;9.268;2023-07-31T02:53:13;97502.28;;;11.95;100.00
5283;BME280;15376;48.540;9.268;2023-07-31T02:55:38;97508.41;;;11.95;100.00
5283;BME280;15376;48.540;9.268;2023-07-31T02:58:04;97488.47;;;11.70;100.00
5283;BME280;15376;48.540;9.268;2023-07-31T03:00:29;97505.06;;;11.87;100.00
5283;BME280;15376;48.540;9.268;2023-07-31T03:02:55;97497.19;;;11.79;100.00
5283;BME280;15376;48.540;9.268;2023-07-31T03:05:20;97499.34;;;11.90;100.00
5283;BME280;15376;48.540;9.268;2023-07-31T03:07:46;97505.81;;;11.81;100.00
5283;BME280;15376;48.540;9.268;2023-07-31T03:10:11;97486.38;;;11.65;100.00
5283;BME280;15376;48.540;9.268;2023-07-31T03:12:37;97493.03;;;11.76;100.00
5283;BME280;15376;48.540;9.268;2023-07-31T03:15:02;97505.72;;;11.74;100.00
5283;BME280;15376;48.540;9.268;2023-07-31T03:17:28;97498.84;;;11.80;100.00
5283;BME280;15376;48.540;9.268;2023-07-31T03:19:53;97496.28;;;11.72;100.00
5283;BME280;15376;48.540;9.268;2023-07-31T03:22:18;97496.66;;;11.68;100.00
5283;BME280;15376;48.540;9.268;2023-07-31T03:24:44;97475.75;;;11.65;100.00
5283;BME280;15376;48.540;9.268;2023-07-31T03:27:09;97470.22;;;11.67;100.00
5283;BME280;15376;48.540;9.268;2023-07-31T03:29:34;97488.28;;;11.72;100.00
5283;BME280;15376;48.540;9.268;2023-07-31T03:32:00;97497.50;;;11.90;100.00
5283;BME280;15376;48.540;9.268;2023-07-31T03:34:26;97472.63;;;11.77;100.00
5283;BME280;15376;48.540;9.268;2023-07-31T03:36:51;97503.53;;;11.99;100.00
5283;BME280;15376;48.540;9.268;2023-07-31T03:39:16;97502.72;;;11.98;100.00
5283;BME280;15376;48.540;9.268;2023-07-31T03:41:42;97488.06;;;11.88;100.00
5283;BME280;15376;48.540;9.268;2023-07-31T03:44:07;97511.13;;;11.81;100.00
5283;BME280;15376;48.540;9.268;2023-07-31T03:46:33;97514.63;;;11.66;100.00
5283;BME280;15376;48.540;9.268;2023-07-31T03:48:59;97507.84;;;11.64;100.00
5283;BME280;15376;48.540;9.268;2023-07-31T03:51:24;97514.69;;;11.88;100.00
5283;BME280;15376;48.540;9.268;2023-07-31T03:53:49;97494.72;;;11.77;100.00
5283;BME280;15376;48.540;9.268;2023-07-31T03:56:15;97516.25;;;12.03;100.00
5283;BME280;15376;48.540;9.268;2023-07-31T03:58:40;97504.84;;;12.10;100.00
5283;BME280;15376;48.540;9.268;2023-07-31T04:01:06;97508.19;;;12.18;100.00
5283;BME280;15376;48.540;9.268;2023-07-31T04:03:31;97507.75;;;12.15;100.00
5283;BME280;15376;48.540;9.268;2023-07-31T04:05:56;97500.19;;;12.18;100.00
5283;BME280;15376;48.540;9.268;2023-07-31T04:08:22;97514.44;;;12.32;100.00
5283;BME280;15376;48.540;9.268;2023-07-31T04:10:48;97494.75;;;12.26;100.00
5283;BME280;15376;48.540;9.268;2023-07-31T04:13:13;97504.44;;;12.34;100.00
5283;BME280;15376;48.540;9.268;2023-07-31T04:15:39;97510.78;;;12.33;100.00
5283;BME280;15376;48.540;9.268;2023-07-31T04:18:05;97511.59;;;12.33;100.00
5283;BME280;15376;48.540;9.268;2023-07-31T04:20:31;97519.28;;;12.50;100.00
5283;BME280;15376;48.540;9.268;2023-07-31T04:22:56;97494.44;;;12.43;100.00
5283;BME280;15376;48.540;9.268;2023-07-31T04:25:22;97495.31;;;12.50;100.00
5283;BME280;15376;48.540;9.268;2023-07-31T04:27:47;97503.41;;;12.63;100.00
5283;BME280;15376;48.540;9.268;2023-07-31T04:30:13;97502.19;;;12.65;100.00
5283;BME280;15376;48.540;9.268;2023-07-31T04:32:38;97499.56;;;12.72;100.00
5283;BME280;15376;48.540;9.268;2023-07-31T04:35:04;97497.97;;;12.78;100.00
5283;BME280;15376;48.540;9.268;2023-07-31T04:37:29;97478.06;;;12.74;100.00
5283;BME280;15376;48.540;9.268;2023-07-31T04:39:55;97492.63;;;12.84;100.00
5283;BME280;15376;48.540;9.268;2023-07-31T04:42:20;97494.75;;;12.95;100.00
5283;BME280;15376;48.540;9.268;2023-07-31T04:44:45;97483.66;;;12.92;100.00
5283;BME280;15376;48.540;9.268;2023-07-31T04:47:11;97474.22;;;12.89;100.00
5283;BME280;15376;48.540;9.268;2023-07-31T04:49:36;97476.75;;;13.04;100.00
5283;BME280;15376;48.540;9.268;2023-07-31T04:52:02;97479.66;;;13.09;100.00
5283;BME280;15376;48.540;9.268;2023-07-31T04:54:27;97459.09;;;12.96;100.00
5283;BME280;15376;48.540;9.268;2023-07-31T04:56:52;97501.47;;;13.19;100.00
5283;BME280;15376;48.540;9.268;2023-07-31T04:59:18;97493.88;;;13.23;100.00
5283;BME280;15376;48.540;9.268;2023-07-31T05:01:43;97441.91;;;13.06;100.00
5283;BME280;15376;48.540;9.268;2023-07-31T05:04:12;97467.81;;;13.25;100.00
5283;BME280;15376;48.540;9.268;2023-07-31T05:06:38;97468.25;;;13.28;100.00
5283;BME280;15376;48.540;9.268;2023-07-31T05:09:03;97489.06;;;13.53;100.00
5283;BME280;15376;48.540;9.268;2023-07-31T05:11:29;97456.59;;;13.36;100.00
5283;BME280;15376;48.540;9.268;2023-07-31T05:13:54;97472.63;;;13.49;100.00
5283;BME280;15376;48.540;9.268;2023-07-31T05:16:19;97494.59;;;13.64;100.00
5283;BME280;15376;48.540;9.268;2023-07-31T05:18:45;97483.13;;;13.64;100.00
5283;BME280;15376;48.540;9.268;2023-07-31T05:21:10;97494.00;;;13.69;100.00
5283;BME280;15376;48.540;9.268;2023-07-31T05:23:35;97495.28;;;13.80;100.00
5283;BME280;15376;48.540;9.268;2023-07-31T05:26:07;97465.06;;;13.66;100.00
5283;BME280;15376;48.540;9.268;2023-07-31T05:28:35;97474.72;;;13.80;100.00
5283;BME280;15376;48.540;9.268;2023-07-31T05:31:02;97480.72;;;13.89;100.00
5283;BME280;15376;48.540;9.268;2023-07-31T05:33:27;97452.78;;;13.85;100.00
5283;BME280;15376;48.540;9.268;2023-07-31T05:35:53;97484.41;;;14.14;100.00
5283;BME280;15376;48.540;9.268;2023-07-31T05:38:18;97484.00;;;14.30;100.00
5283;BME280;15376;48.540;9.268;2023-07-31T05:40:44;97482.56;;;14.48;100.00
5283;BME280;15376;48.540;9.268;2023-07-31T05:43:09;97463.66;;;14.49;100.00
5283;BME280;15376;48.540;9.268;2023-07-31T05:45:35;97452.72;;;14.64;100.00
5283;BME280;15376;48.540;9.268;2023-07-31T05:48:01;97489.66;;;15.00;100.00
5283;BME280;15376;48.540;9.268;2023-07-31T05:50:26;97470.94;;;15.00;100.00
5283;BME280;15376;48.540;9.268;2023-07-31T05:52:51;97469.44;;;15.11;100.00
5283;BME280;15376;48.540;9.268;2023-07-31T05:55:17;97492.00;;;15.28;100.00
5283;BME280;15376;48.540;9.268;2023-07-31T05:57:42;97494.44;;;15.36;100.00
5283;BME280;15376;48.540;9.268;2023-07-31T06:00:11;97495.66;;;15.40;100.00
5283;BME280;15376;48.540;9.268;2023-07-31T06:02:37;97488.63;;;15.46;100.00
5283;BME280;15376;48.540;9.268;2023-07-31T06:05:04;97487.72;;;15.65;100.00
5283;BME280;15376;48.540;9.268;2023-07-31T06:07:31;97493.44;;;15.75;100.00
5283;BME280;15376;48.540;9.268;2023-07-31T06:09:56;97464.19;;;15.74;100.00
5283;BME280;15376;48.540;9.268;2023-07-31T06:12:27;97471.13;;;15.88;100.00
5283;BME280;15376;48.540;9.268;2023-07-31T06:14:52;97453.78;;;15.90;100.00
5283;BME280;15376;48.540;9.268;2023-07-31T06:17:17;97449.66;;;15.94;100.00
5283;BME280;15376;48.540;9.268;2023-07-31T06:19:43;97455.44;;;16.16;100.00
5283;BME280;15376;48.540;9.268;2023-07-31T06:22:08;97467.84;;;16.36;100.00
5283;BME280;15376;48.540;9.268;2023-07-31T06:24:34;97476.78;;;16.48;100.00
5283;BME280;15376;48.540;9.268;2023-07-31T06:26:59;97445.16;;;16.38;100.00
5283;BME280;15376;48.540;9.268;2023-07-31T06:29:24;97471.53;;;16.59;100.00
5283;BME280;15376;48.540;9.268;2023-07-31T06:31:50;97437.84;;;16.45;100.00
5283;BME280;15376;48.540;9.268;2023-07-31T06:34:16;97461.91;;;16.52;100.00
5283;BME280;15376;48.540;9.268;2023-07-31T06:36:41;97470.09;;;16.57;100.00
5283;BME280;15376;48.540;9.268;2023-07-31T06:39:06;97464.81;;;16.50;100.00
5283;BME280;15376;48.540;9.268;2023-07-31T06:41:32;97472.53;;;16.65;100.00
5283;BME280;15376;48.540;9.268;2023-07-31T06:43:57;97468.53;;;16.92;100.00
5283;BME280;15376;48.540;9.268;2023-07-31T06:46:22;97468.50;;;17.29;100.00
5283;BME280;15376;48.540;9.268;2023-07-31T06:48:48;97473.78;;;17.84;100.00
5283;BME280;15376;48.540;9.268;2023-07-31T06:51:13;97462.06;;;18.31;100.00
5283;BME280;15376;48.540;9.268;2023-07-31T06:53:38;97468.03;;;18.80;100.00
5283;BME280;15376;48.540;9.268;2023-07-31T06:56:04;97459.47;;;19.07;100.00
5283;BME280;15376;48.540;9.268;2023-07-31T06:58:29;97465.44;;;19.37;94.18
5283;BME280;15376;48.540;9.268;2023-07-31T07:00:54;97463.53;;;19.49;93.88
5283;BME280;15376;48.540;9.268;2023-07-31T07:03:20;97470.13;;;19.53;89.70
5283;BME280;15376;48.540;9.268;2023-07-31T07:05:45;97464.00;;;19.58;92.52
5283;BME280;15376;48.540;9.268;2023-07-31T07:08:11;97460.19;;;19.71;88.60
5283;BME280;15376;48.540;9.268;2023-07-31T07:10:37;97459.16;;;19.88;88.57
5283;BME280;15376;48.540;9.268;2023-07-31T07:13:02;97474.63;;;19.93;86.52
5283;BME280;15376;48.540;9.268;2023-07-31T07:15:27;97466.34;;;19.83;88.08
5283;BME280;15376;48.540;9.268;2023-07-31T07:17:54;97466.72;;;19.75;87.61
5283;BME280;15376;48.540;9.268;2023-07-31T07:20:19;97455.41;;;19.61;87.33
5283;BME280;15376;48.540;9.268;2023-07-31T07:22:45;97474.25;;;19.73;87.77
5283;BME280;15376;48.540;9.268;2023-07-31T07:25:10;97468.06;;;19.89;89.18
5283;BME280;15376;48.540;9.268;2023-07-31T07:27:36;97488.69;;;19.95;86.13
5283;BME280;15376;48.540;9.268;2023-07-31T07:30:02;97466.72;;;19.75;84.83
5283;BME280;15376;48.540;9.268;2023-07-31T07:32:27;97466.00;;;19.79;87.80
5283;BME280;15376;48.540;9.268;2023-07-31T07:34:53;97465.81;;;19.97;88.19
5283;BME280;15376;48.540;9.268;2023-07-31T07:37:18;97463.03;;;20.09;87.35
5283;BME280;15376;48.540;9.268;2023-07-31T07:39:44;97460.09;;;19.94;85.67
5283;BME280;15376;48.540;9.268;2023-07-31T07:42:09;97448.56;;;20.15;85.80
5283;BME280;15376;48.540;9.268;2023-07-31T07:44:35;97452.19;;;20.38;84.31
5283;BME280;15376;48.540;9.268;2023-07-31T07:47:00;97424.13;;;20.22;84.20
5283;BME280;15376;48.540;9.268;2023-07-31T07:49:26;97427.56;;;20.17;82.78
5283;BME280;15376;48.540;9.268;2023-07-31T07:51:51;97445.53;;;20.12;81.54
5283;BME280;15376;48.540;9.268;2023-07-31T07:54:18;97435.25;;;20.09;81.85
5283;BME280;15376;48.540;9.268;2023-07-31T07:56:45;97434.75;;;20.28;83.45
5283;BME280;15376;48.540;9.268;2023-07-31T07:59:10;97448.31;;;20.50;82.31
5283;BME280;15376;48.540;9.268;2023-07-31T08:01:36;97456.75;;;20.54;81.23
5283;BME280;15376;48.540;9.268;2023-07-31T08:04:01;97433.69;;;20.46;79.44
5283;BME280;15376;48.540;9.268;2023-07-31T08:06:26;97449.56;;;20.81;78.18
5283;BME280;15376;48.540;9.268;2023-07-31T08:08:52;97449.78;;;20.58;77.88
5283;BME280;15376;48.540;9.268;2023-07-31T08:11:17;97442.44;;;20.37;78.53
5283;BME280;15376;48.540;9.268;2023-07-31T08:13:42;97446.03;;;20.42;78.97
5283;BME280;15376;48.540;9.268;2023-07-31T08:16:08;97442.75;;;20.57;79.11
5283;BME280;15376;48.540;9.268;2023-07-31T08:18:33;97431.66;;;20.37;79.64
5283;BME280;15376;48.540;9.268;2023-07-31T08:20:59;97443.00;;;20.55;79.66
5283;BME280;15376;48.540;9.268;2023-07-31T08:23:24;97405.09;;;20.28;79.15
5283;BME280;15376;48.540;9.268;2023-07-31T08:25:50;97352.56;;;20.14;80.58
5283;BME280;15376;48.540;9.268;2023-07-31T08:28:16;97418.44;;;20.74;76.86
5283;BME280;15376;48.540;9.268;2023-07-31T08:30:42;97428.50;;;20.78;76.62
5283;BME280;15376;48.540;9.268;2023-07-31T08:33:07;97400.47;;;20.84;73.60
5283;BME280;15376;48.540;9.268;2023-07-31T08:35:33;97409.94;;;21.04;73.36
5283;BME280;15376;48.540;9.268;2023-07-31T08:37:59;97393.09;;;20.96;71.04
5283;BME280;15376;48.540;9.268;2023-07-31T08:40:24;97402.44;;;20.89;70.45
5283;BME280;15376;48.540;9.268;2023-07-31T08:42:53;97415.63;;;21.29;71.18
5283;BME280;15376;48.540;9.268;2023-07-31T08:45:19;97418.25;;;21.73;68.84
5283;BME280;15376;48.540;9.268;2023-07-31T08:47:49;97421.91;;;21.56;66.61
5283;BME280;15376;48.540;9.268;2023-07-31T08:50:18;97420.47;;;21.27;68.31
5283;BME280;15376;48.540;9.268;2023-07-31T08:52:45;97413.50;;;21.09;67.90
5283;BME280;15376;48.540;9.268;2023-07-31T08:55:10;97387.66;;;21.40;68.16
5283;BME280;15376;48.540;9.268;2023-07-31T08:57:37;97407.22;;;22.06;68.20
5283;BME280;15376;48.540;9.268;2023-07-31T09:00:04;97404.44;;;22.28;64.88
5283;BME280;15376;48.540;9.268;2023-07-31T09:02:46;97416.06;;;22.28;64.22
5283;BME280;15376;48.540;9.268;2023-07-31T09:05:14;97389.41;;;22.10;64.52
5283;BME280;15376;48.540;9.268;2023-07-31T09:07:43;97408.50;;;22.31;63.75
5283;BME280;15376;48.540;9.268;2023-07-31T09:10:11;97415.03;;;22.35;66.42
5283;BME280;15376;48.540;9.268;2023-07-31T09:12:37;97388.19;;;22.28;64.07
5283;BME280;15376;48.540;9.268;2023-07-31T09:15:04;97402.03;;;22.32;63.57
5283;BME280;15376;48.540;9.268;2023-07-31T09:17:31;97395.06;;;22.46;65.13
5283;BME280;15376;48.540;9.268;2023-07-31T09:19:56;97389.97;;;22.54;64.15
5283;BME280;15376;48.540;9.268;2023-07-31T09:22:35;97398.84;;;22.87;62.84
5283;BME280;15376;48.540;9.268;2023-07-31T09:27:49;97410.44;;;22.35;63.58
5283;BME280;15376;48.540;9.268;2023-07-31T09:30:15;97395.50;;;22.27;63.96
5283;BME280;15376;48.540;9.268;2023-07-31T09:32:42;97380.03;;;22.23;64.51
5283;BME280;15376;48.540;9.268;2023-07-31T09:37:39;97392.31;;;22.36;63.28
5283;BME280;15376;48.540;9.268;2023-07-31T09:40:05;97384.31;;;22.56;62.96
5283;BME280;15376;48.540;9.268;2023-07-31T09:42:30;97370.19;;;22.49;63.85
5283;BME280;15376;48.540;9.268;2023-07-31T09:45:09;97399.38;;;22.84;62.06
5283;BME280;15376;48.540;9.268;2023-07-31T09:47:35;97379.09;;;22.91;63.71
5283;BME280;15376;48.540;9.268;2023-07-31T09:50:00;97374.59;;;23.12;60.97
5283;BME280;15376;48.540;9.268;2023-07-31T09:52:26;97360.78;;;23.19;61.35
5283;BME280;15376;48.540;9.268;2023-07-31T09:54:52;97378.34;;;23.06;60.01
5283;BME280;15376;48.540;9.268;2023-07-31T09:57:19;97359.31;;;22.91;62.35
5283;BME280;15376;48.540;9.268;2023-07-31T09:59:47;97352.56;;;22.93;61.27
5283;BME280;15376;48.540;9.268;2023-07-31T10:02:15;97359.88;;;22.98;61.41
5283;BME280;15376;48.540;9.268;2023-07-31T10:04:45;97352.13;;;23.17;62.95
5283;BME280;15376;48.540;9.268;2023-07-31T10:07:12;97322.28;;;23.12;60.94
5283;BME280;15376;48.540;9.268;2023-07-31T10:09:38;97303.25;;;22.86;60.85
5283;BME280;15376;48.540;9.268;2023-07-31T10:12:06;97327.53;;;23.69;60.09
5283;BME280;15376;48.540;9.268;2023-07-31T10:14:35;97333.78;;;24.25;59.91
5283;BME280;15376;48.540;9.268;2023-07-31T10:17:01;97327.72;;;24.54;55.38
5283;BME280;15376;48.540;9.268;2023-07-31T10:19:28;97321.19;;;25.64;54.42
5283;BME280;15376;48.540;9.268;2023-07-31T10:21:56;97320.00;;;27.28;52.50
5283;BME280;15376;48.540;9.268;2023-07-31T10:24:24;97288.13;;;28.81;49.33
5283;BME280;15376;48.540;9.268;2023-07-31T10:26:52;97313.50;;;29.36;46.21
5283;BME280;15376;48.540;9.268;2023-07-31T10:29:19;97303.00;;;30.50;42.72
5283;BME280;15376;48.540;9.268;2023-07-31T10:31:46;97305.22;;;31.19;40.90
5283;BME280;15376;48.540;9.268;2023-07-31T10:34:12;97301.66;;;31.18;41.14
5283;BME280;15376;48.540;9.268;2023-07-31T10:36:38;97318.25;;;32.16;36.87
5283;BME280;15376;48.540;9.268;2023-07-31T10:39:04;97288.19;;;32.11;38.49
5283;BME280;15376;48.540;9.268;2023-07-31T10:41:30;97299.97;;;33.05;36.99
5283;BME280;15376;48.540;9.268;2023-07-31T10:44:02;97297.50;;;33.96;36.07
5283;BME280;15376;48.540;9.268;2023-07-31T10:46:28;97298.31;;;34.41;34.29
5283;BME280;15376;48.540;9.268;2023-07-31T10:49:01;97284.91;;;35.01;33.00
5283;BME280;15376;48.540;9.268;2023-07-31T10:51:36;97295.19;;;35.53;32.03
5283;BME280;15376;48.540;9.268;2023-07-31T10:54:12;97284.78;;;34.85;32.24
5283;BME280;15376;48.540;9.268;2023-07-31T10:56:38;97275.19;;;35.19;31.13
5283;BME280;15376;48.540;9.268;2023-07-31T10:59:04;97271.66;;;34.00;31.93
5283;BME280;15376;48.540;9.268;2023-07-31T11:01:54;97286.78;;;33.82;32.64
5283;BME280;15376;48.540;9.268;2023-07-31T11:04:26;97279.03;;;31.99;34.80
5283;BME280;15376;48.540;9.268;2023-07-31T11:06:59;97268.00;;;32.07;35.95
5283;BME280;15376;48.540;9.268;2023-07-31T11:09:32;97262.41;;;31.69;36.15
5283;BME280;15376;48.540;9.268;2023-07-31T11:12:01;97262.56;;;33.67;33.98
5283;BME280;15376;48.540;9.268;2023-07-31T11:14:26;97268.81;;;35.55;32.03
5283;BME280;15376;48.540;9.268;2023-07-31T11:16:52;97266.94;;;35.07;30.48
5283;BME280;15376;48.540;9.268;2023-07-31T11:19:22;97267.19;;;34.65;30.79
5283;BME280;15376;48.540;9.268;2023-07-31T11:21:48;97254.44;;;34.73;31.41
5283;BME280;15376;48.540;9.268;2023-07-31T11:24:14;97251.31;;;36.23;31.74
5283;BME280;15376;48.540;9.268;2023-07-31T11:26:48;97254.63;;;37.26;28.88
5283;BME280;15376;48.540;9.268;2023-07-31T11:29:14;97230.13;;;35.83;29.46
5283;BME280;15376;48.540;9.268;2023-07-31T11:31:43;97243.47;;;34.28;30.38
5283;BME280;15376;48.540;9.268;2023-07-31T11:34:08;97236.00;;;33.08;32.97
5283;BME280;15376;48.540;9.268;2023-07-31T11:36:34;97235.09;;;31.90;35.22
5283;BME280;15376;48.540;9.268;2023-07-31T11:39:09;97251.03;;;30.84;36.06
5283;BME280;15376;48.540;9.268;2023-07-31T11:41:35;97259.59;;;29.81;37.07
5283;BME280;15376;48.540;9.268;2023-07-31T11:44:00;97241.50;;;28.77;38.80
5283;BME280;15376;48.540;9.268;2023-07-31T11:46:26;97260.94;;;28.21;40.71
5283;BME280;15376;48.540;9.268;2023-07-31T11:48:52;97223.56;;;28.03;42.20
5283;BME280;15376;48.540;9.268;2023-07-31T11:51:20;97234.94;;;28.51;41.29
5283;BME280;15376;48.540;9.268;2023-07-31T11:53:57;97239.91;;;28.21;41.94
5283;BME280;15376;48.540;9.268;2023-07-31T11:56:24;97242.03;;;27.27;42.76
5283;BME280;15376;48.540;9.268;2023-07-31T11:58:55;97212.34;;;26.45;45.55
5283;BME280;15376;48.540;9.268;2023-07-31T12:01:22;97224.38;;;26.15;45.59
5283;BME280;15376;48.540;9.268;2023-07-31T12:03:52;97227.03;;;26.68;46.29
5283;BME280;15376;48.540;9.268;2023-07-31T12:06:17;97217.25;;;26.67;45.28
5283;BME280;15376;48.540;9.268;2023-07-31T12:08:43;97195.50;;;26.19;44.35
5283;BME280;15376;48.540;9.268;2023-07-31T12:11:09;97208.22;;;26.00;46.45
5283;BME280;15376;48.540;9.268;2023-07-31T12:13:35;97189.94;;;25.82;47.72
5283;BME280;15376;48.540;9.268;2023-07-31T12:16:02;97209.41;;;25.65;49.05
5283;BME280;15376;48.540;9.268;2023-07-31T12:18:29;97209.56;;;25.11;49.28
5283;BME280;15376;48.540;9.268;2023-07-31T12:20:57;97207.34;;;24.74;51.15
5283;BME280;15376;48.540;9.268;2023-07-31T12:23:28;97180.16;;;24.19;53.64
5283;BME280;15376;48.540;9.268;2023-07-31T12:26:08;97202.22;;;23.92;57.08
5283;BME280;15376;48.540;9.268;2023-07-31T12:28:40;97174.28;;;23.87;56.93
5283;BME280;15376;48.540;9.268;2023-07-31T12:31:06;97199.78;;;23.91;55.56
5283;BME280;15376;48.540;9.268;2023-07-31T12:33:34;97156.91;;;23.98;58.80
5283;BME280;15376;48.540;9.268;2023-07-31T12:36:01;97167.38;;;24.20;55.07
5283;BME280;15376;48.540;9.268;2023-07-31T12:38:27;97196.44;;;24.19;54.53
5283;BME280;15376;48.540;9.268;2023-07-31T12:40:52;97171.25;;;24.04;55.20
5283;BME280;15376;48.540;9.268;2023-07-31T12:43:17;97150.91;;;24.01;55.02
5283;BME280;15376;48.540;9.268;2023-07-31T12:45:43;97134.94;;;23.94;56.76
5283;BME280;15376;48.540;9.268;2023-07-31T12:48:08;97171.19;;;24.19;57.55
5283;BME280;15376;48.540;9.268;2023-07-31T12:50:33;97149.78;;;24.07;55.67
5283;BME280;15376;48.540;9.268;2023-07-31T12:53:01;97118.81;;;24.18;54.69
5283;BME280;15376;48.540;9.268;2023-07-31T12:55:28;97150.56;;;25.16;54.94
5283;BME280;15376;48.540;9.268;2023-07-31T12:57:53;97156.91;;;25.59;52.18
5283;BME280;15376;48.540;9.268;2023-07-31T13:00:19;97146.63;;;26.33;51.12
5283;BME280;15376;48.540;9.268;2023-07-31T13:02:44;97148.44;;;28.19;45.71
5283;BME280;15376;48.540;9.268;2023-07-31T13:05:10;97148.31;;;29.46;43.61
5283;BME280;15376;48.540;9.268;2023-07-31T13:07:35;97137.69;;;30.24;39.71
5283;BME280;15376;48.540;9.268;2023-07-31T13:10:01;97136.19;;;29.16;41.81